sensor_id;sensor_type;location;lat;lon;timestamp;P1;durP1;ratioP1;P2;durP2;ratioP2
21480;SDS011;10902;48.158;8.634;2024-03-02T00:01:50;29.95;;;18.17;;
21480;SDS011;10902;48.158;8.634;2024-03-02T00:04:36;27.92;;;17.48;;
21480;SDS011;10902;48.158;8.634;2024-03-02T00:07:22;30.13;;;18.02;;
21480;SDS011;10902;48.158;8.634;2024-03-02T00:10:10;29.23;;;18.52;;
21480;SDS011;10902;48.158;8.634;2024-03-02T00:12:59;30.17;;;18.80;;
21480;SDS011;10902;48.158;8.634;2024-03-02T00:15:48;32.28;;;18.02;;
21480;SDS011;10902;48.158;8.634;2024-03-02T00:18:40;30.42;;;18.27;;
21480;SDS011;10902;48.158;8.634;2024-03-02T00:21:26;29.40;;;18.08;;
21480;SDS011;10902;48.158;8.634;2024-03-02T00:24:19;30.60;;;18.27;;
21480;SDS011;10902;48.158;8.634;2024-03-02T00:27:14;28.55;;;17.25;;
21480;SDS011;10902;48.158;8.634;2024-03-02T00:30:06;31.48;;;18.60;;
21480;SDS011;10902;48.158;8.634;2024-03-02T00:33:17;29.73;;;18.17;;
21480;SDS011;10902;48.158;8.634;2024-03-02T00:36:03;29.75;;;17.95;;
21480;SDS011;10902;48.158;8.634;2024-03-02T00:38:51;34.10;;;19.92;;
21480;SDS011;10902;48.158;8.634;2024-03-02T00:41:38;30.73;;;19.15;;
21480;SDS011;10902;48.158;8.634;2024-03-02T00:44:29;36.40;;;21.33;;
21480;SDS011;10902;48.158;8.634;2024-03-02T00:47:19;33.70;;;19.92;;
21480;SDS011;10902;48.158;8.634;2024-03-02T00:50:05;31.50;;;19.42;;
21480;SDS011;10902;48.158;8.634;2024-03-02T00:52:51;34.22;;;20.52;;
21480;SDS011;10902;48.158;8.634;2024-03-02T00:55:37;33.75;;;20.63;;
21480;SDS011;10902;48.158;8.634;2024-03-02T00:58:23;35.38;;;20.48;;
21480;SDS011;10902;48.158;8.634;2024-03-02T01:01:09;31.75;;;18.75;;
21480;SDS011;10902;48.158;8.634;2024-03-02T01:03:55;35.53;;;21.15;;
21480;SDS011;10902;48.158;8.634;2024-03-02T01:06:42;33.92;;;20.50;;
21480;SDS011;10902;48.158;8.634;2024-03-02T01:09:28;36.05;;;20.80;;
21480;SDS011;10902;48.158;8.634;2024-03-02T01:12:14;32.53;;;19.92;;
21480;SDS011;10902;48.158;8.634;2024-03-02T01:15:00;35.72;;;20.60;;
21480;SDS011;10902;48.158;8.634;2024-03-02T01:17:45;37.45;;;21.30;;
21480;SDS011;10902;48.158;8.634;2024-03-02T01:20:31;39.17;;;22.92;;
21480;SDS011;10902;48.158;8.634;2024-03-02T01:23:18;41.22;;;21.90;;
21480;SDS011;10902;48.158;8.634;2024-03-02T01:26:04;37.42;;;20.25;;
21480;SDS011;10902;48.158;8.634;2024-03-02T01:28:50;39.75;;;21.67;;
21480;SDS011;10902;48.158;8.634;2024-03-02T01:31:36;40.03;;;21.95;;
21480;SDS011;10902;48.158;8.634;2024-03-02T01:34:21;37.08;;;21.85;;
21480;SDS011;10902;48.158;8.634;2024-03-02T01:37:07;41.83;;;21.02;;
21480;SDS011;10902;48.158;8.634;2024-03-02T01:39:54;40.85;;;21.45;;
21480;SDS011;10902;48.158;8.634;2024-03-02T01:42:39;38.55;;;21.88;;
21480;SDS011;10902;48.158;8.634;2024-03-02T01:45:25;42.83;;;23.60;;
21480;SDS011;10902;48.158;8.634;2024-03-02T01:48:11;43.47;;;22.75;;
21480;SDS011;10902;48.158;8.634;2024-03-02T01:50:57;40.08;;;21.95;;
21480;SDS011;10902;48.158;8.634;2024-03-02T01:53:42;46.60;;;22.90;;
21480;SDS011;10902;48.158;8.634;2024-03-02T01:56:28;42.28;;;23.17;;
21480;SDS011;10902;48.158;8.634;2024-03-02T01:59:13;44.28;;;23.40;;
21480;SDS011;10902;48.158;8.634;2024-03-02T02:01:59;44.28;;;21.63;;
21480;SDS011;10902;48.158;8.634;2024-03-02T02:04:44;43.92;;;23.40;;
21480;SDS011;10902;48.158;8.634;2024-03-02T02:07:30;43.15;;;23.35;;
21480;SDS011;10902;48.158;8.634;2024-03-02T02:10:16;46.13;;;23.92;;
21480;SDS011;10902;48.158;8.634;2024-03-02T02:13:02;47.80;;;24.02;;
21480;SDS011;10902;48.158;8.634;2024-03-02T02:15:48;40.72;;;21.63;;
21480;SDS011;10902;48.158;8.634;2024-03-02T02:18:34;47.33;;;23.02;;
21480;SDS011;10902;48.158;8.634;2024-03-02T02:21:23;48.63;;;25.38;;
21480;SDS011;10902;48.158;8.634;2024-03-02T02:24:09;49.30;;;24.42;;
21480;SDS011;10902;48.158;8.634;2024-03-02T02:26:55;58.03;;;26.65;;
21480;SDS011;10902;48.158;8.634;2024-03-02T02:29:41;54.78;;;25.55;;
21480;SDS011;10902;48.158;8.634;2024-03-02T02:32:27;58.05;;;26.38;;
21480;SDS011;10902;48.158;8.634;2024-03-02T02:35:12;58.72;;;27.35;;
21480;SDS011;10902;48.158;8.634;2024-03-02T02:37:58;60.42;;;27.50;;
21480;SDS011;10902;48.158;8.634;2024-03-02T02:40:44;62.97;;;28.73;;
21480;SDS011;10902;48.158;8.634;2024-03-02T02:43:29;59.97;;;27.65;;
21480;SDS011;10902;48.158;8.634;2024-03-02T02:46:15;65.47;;;27.77;;
21480;SDS011;10902;48.158;8.634;2024-03-02T02:49:01;70.85;;;28.48;;
21480;SDS011;10902;48.158;8.634;2024-03-02T02:51:46;69.20;;;30.67;;
21480;SDS011;10902;48.158;8.634;2024-03-02T02:54:32;73.63;;;30.20;;
21480;SDS011;10902;48.158;8.634;2024-03-02T02:57:17;73.65;;;30.63;;
21480;SDS011;10902;48.158;8.634;2024-03-02T03:00:03;70.50;;;29.55;;
21480;SDS011;10902;48.158;8.634;2024-03-02T03:02:54;67.70;;;28.75;;
21480;SDS011;10902;48.158;8.634;2024-03-02T03:05:40;67.00;;;28.13;;
21480;SDS011;10902;48.158;8.634;2024-03-02T03:08:26;66.88;;;28.02;;
21480;SDS011;10902;48.158;8.634;2024-03-02T03:11:11;70.35;;;28.83;;
21480;SDS011;10902;48.158;8.634;2024-03-02T03:13:57;66.35;;;28.77;;
21480;SDS011;10902;48.158;8.634;2024-03-02T03:16:42;68.32;;;27.17;;
21480;SDS011;10902;48.158;8.634;2024-03-02T03:19:30;70.53;;;28.95;;
21480;SDS011;10902;48.158;8.634;2024-03-02T03:22:16;70.70;;;30.95;;
21480;SDS011;10902;48.158;8.634;2024-03-02T03:25:02;69.60;;;27.75;;
21480;SDS011;10902;48.158;8.634;2024-03-02T03:27:48;72.25;;;28.98;;
21480;SDS011;10902;48.158;8.634;2024-03-02T03:30:34;69.05;;;28.40;;
21480;SDS011;10902;48.158;8.634;2024-03-02T03:33:19;66.85;;;27.60;;
21480;SDS011;10902;48.158;8.634;2024-03-02T03:36:05;69.30;;;28.42;;
21480;SDS011;10902;48.158;8.634;2024-03-02T03:38:51;64.82;;;27.60;;
21480;SDS011;10902;48.158;8.634;2024-03-02T03:41:36;78.25;;;31.05;;
21480;SDS011;10902;48.158;8.634;2024-03-02T03:44:22;76.50;;;30.50;;
21480;SDS011;10902;48.158;8.634;2024-03-02T03:47:07;80.93;;;31.33;;
21480;SDS011;10902;48.158;8.634;2024-03-02T03:49:53;71.85;;;29.67;;
21480;SDS011;10902;48.158;8.634;2024-03-02T03:52:39;79.85;;;30.67;;
21480;SDS011;10902;48.158;8.634;2024-03-02T03:55:24;71.90;;;28.98;;
21480;SDS011;10902;48.158;8.634;2024-03-02T03:58:10;80.20;;;30.52;;
21480;SDS011;10902;48.158;8.634;2024-03-02T04:00:55;74.90;;;28.85;;
21480;SDS011;10902;48.158;8.634;2024-03-02T04:03:41;75.35;;;30.13;;
21480;SDS011;10902;48.158;8.634;2024-03-02T04:06:27;84.65;;;31.92;;
21480;SDS011;10902;48.158;8.634;2024-03-02T04:09:12;79.13;;;29.90;;
21480;SDS011;10902;48.158;8.634;2024-03-02T04:11:58;80.15;;;32.38;;
21480;SDS011;10902;48.158;8.634;2024-03-02T04:14:44;79.82;;;29.70;;
21480;SDS011;10902;48.158;8.634;2024-03-02T04:17:31;76.25;;;31.05;;
21480;SDS011;10902;48.158;8.634;2024-03-02T04:20:17;78.10;;;30.48;;
21480;SDS011;10902;48.158;8.634;2024-03-02T04:23:03;80.13;;;31.48;;
21480;SDS011;10902;48.158;8.634;2024-03-02T04:25:48;74.18;;;29.73;;
21480;SDS011;10902;48.158;8.634;2024-03-02T04:28:35;64.68;;;27.77;;
21480;SDS011;10902;48.158;8.634;2024-03-02T04:31:20;70.32;;;27.73;;
21480;SDS011;10902;48.158;8.634;2024-03-02T04:34:06;61.83;;;27.17;;
21480;SDS011;10902;48.158;8.634;2024-03-02T04:36:52;65.90;;;27.38;;
21480;SDS011;10902;48.158;8.634;2024-03-02T04:39:37;59.55;;;25.58;;
21480;SDS011;10902;48.158;8.634;2024-03-02T04:42:23;65.20;;;27.60;;
21480;SDS011;10902;48.158;8.634;2024-03-02T04:45:09;61.97;;;27.30;;
21480;SDS011;10902;48.158;8.634;2024-03-02T04:47:55;59.92;;;27.38;;
21480;SDS011;10902;48.158;8.634;2024-03-02T04:50:40;59.53;;;25.60;;
21480;SDS011;10902;48.158;8.634;2024-03-02T04:53:26;58.00;;;25.17;;
21480;SDS011;10902;48.158;8.634;2024-03-02T04:56:11;57.08;;;23.80;;
21480;SDS011;10902;48.158;8.634;2024-03-02T04:59:16;62.28;;;27.45;;
21480;SDS011;10902;48.158;8.634;2024-03-02T05:02:02;57.90;;;26.20;;
21480;SDS011;10902;48.158;8.634;2024-03-02T05:04:48;59.45;;;24.85;;
21480;SDS011;10902;48.158;8.634;2024-03-02T05:07:33;57.97;;;25.70;;
21480;SDS011;10902;48.158;8.634;2024-03-02T05:10:19;58.83;;;26.90;;
21480;SDS011;10902;48.158;8.634;2024-03-02T05:13:05;65.25;;;28.25;;
21480;SDS011;10902;48.158;8.634;2024-03-02T05:15:51;62.97;;;26.70;;
21480;SDS011;10902;48.158;8.634;2024-03-02T05:18:37;68.82;;;27.45;;
21480;SDS011;10902;48.158;8.634;2024-03-02T05:21:23;66.32;;;28.52;;
21480;SDS011;10902;48.158;8.634;2024-03-02T05:24:08;66.97;;;27.60;;
21480;SDS011;10902;48.158;8.634;2024-03-02T05:26:54;61.00;;;26.08;;
21480;SDS011;10902;48.158;8.634;2024-03-02T05:29:39;62.92;;;27.17;;
21480;SDS011;10902;48.158;8.634;2024-03-02T05:32:25;60.78;;;26.40;;
21480;SDS011;10902;48.158;8.634;2024-03-02T05:35:11;60.22;;;27.00;;
21480;SDS011;10902;48.158;8.634;2024-03-02T05:37:57;65.30;;;27.85;;
21480;SDS011;10902;48.158;8.634;2024-03-02T05:40:44;67.30;;;27.85;;
21480;SDS011;10902;48.158;8.634;2024-03-02T05:43:29;59.88;;;26.38;;
21480;SDS011;10902;48.158;8.634;2024-03-02T05:46:15;63.97;;;27.60;;
21480;SDS011;10902;48.158;8.634;2024-03-02T05:49:00;70.72;;;28.35;;
21480;SDS011;10902;48.158;8.634;2024-03-02T05:51:46;65.53;;;29.02;;
21480;SDS011;10902;48.158;8.634;2024-03-02T05:54:32;70.72;;;29.27;;
21480;SDS011;10902;48.158;8.634;2024-03-02T05:57:17;63.22;;;28.52;;
21480;SDS011;10902;48.158;8.634;2024-03-02T06:00:18;66.45;;;28.27;;
21480;SDS011;10902;48.158;8.634;2024-03-02T06:03:04;65.25;;;28.05;;
21480;SDS011;10902;48.158;8.634;2024-03-02T06:05:51;73.82;;;30.00;;
21480;SDS011;10902;48.158;8.634;2024-03-02T06:08:36;66.10;;;28.88;;
21480;SDS011;10902;48.158;8.634;2024-03-02T06:11:23;68.07;;;28.55;;
21480;SDS011;10902;48.158;8.634;2024-03-02T06:14:08;71.10;;;29.13;;
21480;SDS011;10902;48.158;8.634;2024-03-02T06:16:54;65.82;;;27.13;;
21480;SDS011;10902;48.158;8.634;2024-03-02T06:19:40;71.72;;;28.38;;
21480;SDS011;10902;48.158;8.634;2024-03-02T06:22:25;62.33;;;26.02;;
21480;SDS011;10902;48.158;8.634;2024-03-02T06:25:11;65.78;;;27.85;;
21480;SDS011;10902;48.158;8.634;2024-03-02T06:27:58;62.95;;;26.88;;
21480;SDS011;10902;48.158;8.634;2024-03-02T06:30:43;65.97;;;27.35;;
21480;SDS011;10902;48.158;8.634;2024-03-02T06:33:30;58.67;;;26.02;;
21480;SDS011;10902;48.158;8.634;2024-03-02T06:36:15;55.85;;;24.83;;
21480;SDS011;10902;48.158;8.634;2024-03-02T06:39:02;50.97;;;24.92;;
21480;SDS011;10902;48.158;8.634;2024-03-02T06:41:47;52.15;;;25.30;;
21480;SDS011;10902;48.158;8.634;2024-03-02T06:44:33;46.42;;;21.38;;
21480;SDS011;10902;48.158;8.634;2024-03-02T06:47:19;50.55;;;22.88;;
21480;SDS011;10902;48.158;8.634;2024-03-02T06:50:05;50.50;;;22.38;;
21480;SDS011;10902;48.158;8.634;2024-03-02T06:52:52;46.30;;;21.45;;
21480;SDS011;10902;48.158;8.634;2024-03-02T06:55:37;43.65;;;20.95;;
21480;SDS011;10902;48.158;8.634;2024-03-02T06:58:23;45.20;;;22.13;;
21480;SDS011;10902;48.158;8.634;2024-03-02T07:01:09;40.60;;;19.80;;
21480;SDS011;10902;48.158;8.634;2024-03-02T07:03:54;39.88;;;20.33;;
21480;SDS011;10902;48.158;8.634;2024-03-02T07:06:40;43.67;;;20.80;;
21480;SDS011;10902;48.158;8.634;2024-03-02T07:09:26;42.42;;;21.20;;
21480;SDS011;10902;48.158;8.634;2024-03-02T07:12:11;43.17;;;23.35;;
21480;SDS011;10902;48.158;8.634;2024-03-02T07:14:57;39.78;;;20.15;;
21480;SDS011;10902;48.158;8.634;2024-03-02T07:17:48;34.13;;;19.05;;
21480;SDS011;10902;48.158;8.634;2024-03-02T07:20:34;32.03;;;18.42;;
21480;SDS011;10902;48.158;8.634;2024-03-02T07:23:19;30.90;;;18.52;;
21480;SDS011;10902;48.158;8.634;2024-03-02T07:26:08;33.10;;;19.52;;
21480;SDS011;10902;48.158;8.634;2024-03-02T07:28:53;29.73;;;18.02;;
21480;SDS011;10902;48.158;8.634;2024-03-02T07:31:39;31.60;;;18.08;;
21480;SDS011;10902;48.158;8.634;2024-03-02T07:34:25;30.02;;;17.00;;
21480;SDS011;10902;48.158;8.634;2024-03-02T07:37:10;32.22;;;18.20;;
21480;SDS011;10902;48.158;8.634;2024-03-02T07:39:56;27.90;;;16.60;;
21480;SDS011;10902;48.158;8.634;2024-03-02T07:42:41;27.08;;;16.52;;
21480;SDS011;10902;48.158;8.634;2024-03-02T07:45:27;26.63;;;16.45;;
21480;SDS011;10902;48.158;8.634;2024-03-02T07:48:12;24.13;;;15.30;;
21480;SDS011;10902;48.158;8.634;2024-03-02T07:50:59;23.48;;;15.77;;
21480;SDS011;10902;48.158;8.634;2024-03-02T07:53:45;22.45;;;14.55;;
21480;SDS011;10902;48.158;8.634;2024-03-02T07:56:30;24.50;;;15.18;;
21480;SDS011;10902;48.158;8.634;2024-03-02T07:59:17;23.13;;;13.20;;
21480;SDS011;10902;48.158;8.634;2024-03-02T08:02:03;20.38;;;12.98;;
21480;SDS011;10902;48.158;8.634;2024-03-02T08:04:48;17.40;;;11.65;;
21480;SDS011;10902;48.158;8.634;2024-03-02T08:07:34;17.83;;;11.57;;
21480;SDS011;10902;48.158;8.634;2024-03-02T08:10:20;18.92;;;12.70;;
21480;SDS011;10902;48.158;8.634;2024-03-02T08:13:06;19.92;;;13.02;;
21480;SDS011;10902;48.158;8.634;2024-03-02T08:15:51;20.15;;;12.52;;
21480;SDS011;10902;48.158;8.634;2024-03-02T08:18:37;17.70;;;11.38;;
21480;SDS011;10902;48.158;8.634;2024-03-02T08:21:22;17.20;;;11.45;;
21480;SDS011;10902;48.158;8.634;2024-03-02T08:24:09;16.40;;;10.90;;
21480;SDS011;10902;48.158;8.634;2024-03-02T08:26:54;17.17;;;11.30;;
21480;SDS011;10902;48.158;8.634;2024-03-02T08:29:40;15.57;;;10.27;;
21480;SDS011;10902;48.158;8.634;2024-03-02T08:32:26;15.20;;;10.48;;
21480;SDS011;10902;48.158;8.634;2024-03-02T08:35:12;15.77;;;10.77;;
21480;SDS011;10902;48.158;8.634;2024-03-02T08:37:57;13.35;;;9.52;;
21480;SDS011;10902;48.158;8.634;2024-03-02T08:40:43;12.50;;;8.85;;
21480;SDS011;10902;48.158;8.634;2024-03-02T08:43:29;13.23;;;9.32;;
21480;SDS011;10902;48.158;8.634;2024-03-02T08:46:15;14.52;;;8.82;;
21480;SDS011;10902;48.158;8.634;2024-03-02T08:49:01;13.05;;;8.38;;
21480;SDS011;10902;48.158;8.634;2024-03-02T08:51:47;12.75;;;8.27;;
21480;SDS011;10902;48.158;8.634;2024-03-02T08:54:39;12.57;;;8.48;;
21480;SDS011;10902;48.158;8.634;2024-03-02T08:57:25;10.57;;;7.22;;
21480;SDS011;10902;48.158;8.634;2024-03-02T09:00:10;10.95;;;6.75;;
21480;SDS011;10902;48.158;8.634;2024-03-02T09:02:56;12.23;;;8.02;;
21480;SDS011;10902;48.158;8.634;2024-03-02T09:05:42;10.50;;;6.93;;
21480;SDS011;10902;48.158;8.634;2024-03-02T09:08:28;11.23;;;7.60;;
21480;SDS011;10902;48.158;8.634;2024-03-02T09:11:13;9.88;;;6.50;;
21480;SDS011;10902;48.158;8.634;2024-03-02T09:13:59;11.25;;;7.50;;
21480;SDS011;10902;48.158;8.634;2024-03-02T09:16:44;10.85;;;7.80;;
21480;SDS011;10902;48.158;8.634;2024-03-02T09:19:30;10.82;;;7.22;;
21480;SDS011;10902;48.158;8.634;2024-03-02T09:22:16;7.80;;;5.03;;
21480;SDS011;10902;48.158;8.634;2024-03-02T09:25:01;7.32;;;5.22;;
21480;SDS011;10902;48.158;8.634;2024-03-02T09:27:47;8.23;;;5.35;;
21480;SDS011;10902;48.158;8.634;2024-03-02T09:30:33;7.00;;;4.90;;
21480;SDS011;10902;48.158;8.634;2024-03-02T09:33:18;7.35;;;4.55;;
21480;SDS011;10902;48.158;8.634;2024-03-02T09:36:04;7.43;;;4.65;;
21480;SDS011;10902;48.158;8.634;2024-03-02T09:38:50;7.38;;;4.20;;
21480;SDS011;10902;48.158;8.634;2024-03-02T09:41:38;6.35;;;4.18;;
21480;SDS011;10902;48.158;8.634;2024-03-02T09:44:25;6.47;;;3.88;;
21480;SDS011;10902;48.158;8.634;2024-03-02T09:47:11;6.90;;;4.28;;
21480;SDS011;10902;48.158;8.634;2024-03-02T09:49:56;6.78;;;4.70;;
21480;SDS011;10902;48.158;8.634;2024-03-02T09:52:42;6.85;;;4.07;;
21480;SDS011;10902;48.158;8.634;2024-03-02T09:55:28;6.47;;;3.85;;
21480;SDS011;10902;48.158;8.634;2024-03-02T09:58:14;6.53;;;3.53;;
21480;SDS011;10902;48.158;8.634;2024-03-02T10:00:59;6.32;;;3.70;;
21480;SDS011;10902;48.158;8.634;2024-03-02T10:03:45;7.03;;;3.13;;
21480;SDS011;10902;48.158;8.634;2024-03-02T10:06:35;4.90;;;3.00;;
21480;SDS011;10902;48.158;8.634;2024-03-02T10:09:27;7.00;;;3.75;;
21480;SDS011;10902;48.158;8.634;2024-03-02T10:12:14;6.00;;;3.47;;
21480;SDS011;10902;48.158;8.634;2024-03-02T10:15:04;6.15;;;3.45;;
21480;SDS011;10902;48.158;8.634;2024-03-02T10:17:50;5.57;;;3.15;;
21480;SDS011;10902;48.158;8.634;2024-03-02T10:20:36;5.93;;;3.40;;
21480;SDS011;10902;48.158;8.634;2024-03-02T10:23:22;6.07;;;3.75;;
21480;SDS011;10902;48.158;8.634;2024-03-02T10:26:17;5.32;;;3.30;;
21480;SDS011;10902;48.158;8.634;2024-03-02T10:29:06;5.55;;;3.17;;
21480;SDS011;10902;48.158;8.634;2024-03-02T10:31:53;5.90;;;3.03;;
21480;SDS011;10902;48.158;8.634;2024-03-02T10:34:39;5.90;;;2.83;;
21480;SDS011;10902;48.158;8.634;2024-03-02T10:37:26;5.07;;;3.00;;
21480;SDS011;10902;48.158;8.634;2024-03-02T10:40:12;4.90;;;2.42;;
21480;SDS011;10902;48.158;8.634;2024-03-02T10:42:58;5.63;;;2.80;;
21480;SDS011;10902;48.158;8.634;2024-03-02T10:45:47;5.40;;;2.55;;
21480;SDS011;10902;48.158;8.634;2024-03-02T10:48:35;5.35;;;2.35;;
21480;SDS011;10902;48.158;8.634;2024-03-02T10:51:25;5.05;;;2.22;;
21480;SDS011;10902;48.158;8.634;2024-03-02T10:54:12;3.60;;;1.70;;
21480;SDS011;10902;48.158;8.634;2024-03-02T10:56:58;3.70;;;1.20;;
21480;SDS011;10902;48.158;8.634;2024-03-02T10:59:56;3.63;;;1.55;;
21480;SDS011;10902;48.158;8.634;2024-03-02T11:03:04;4.40;;;1.58;;
21480;SDS011;10902;48.158;8.634;2024-03-02T11:05:51;3.88;;;1.38;;
21480;SDS011;10902;48.158;8.634;2024-03-02T11:08:37;3.63;;;1.50;;
21480;SDS011;10902;48.158;8.634;2024-03-02T11:11:27;3.35;;;1.10;;
21480;SDS011;10902;48.158;8.634;2024-03-02T11:14:17;5.28;;;1.55;;
21480;SDS011;10902;48.158;8.634;2024-03-02T11:17:09;3.50;;;1.20;;
21480;SDS011;10902;48.158;8.634;2024-03-02T11:20:00;2.63;;;0.90;;
21480;SDS011;10902;48.158;8.634;2024-03-02T11:22:48;2.92;;;1.38;;
21480;SDS011;10902;48.158;8.634;2024-03-02T11:25:34;3.80;;;1.30;;
21480;SDS011;10902;48.158;8.634;2024-03-02T11:28:27;2.63;;;1.00;;
21480;SDS011;10902;48.158;8.634;2024-03-02T11:31:21;2.72;;;1.10;;
21480;SDS011;10902;48.158;8.634;2024-03-02T11:34:40;3.03;;;0.77;;
21480;SDS011;10902;48.158;8.634;2024-03-02T11:37:19;1.60;;;0.60;;
21480;SDS011;10902;48.158;8.634;2024-03-02T11:40:06;3.05;;;0.70;;
21480;SDS011;10902;48.158;8.634;2024-03-02T11:42:55;2.28;;;0.70;;
21480;SDS011;10902;48.158;8.634;2024-03-02T11:45:42;2.28;;;0.82;;
21480;SDS011;10902;48.158;8.634;2024-03-02T11:48:28;2.17;;;0.80;;
21480;SDS011;10902;48.158;8.634;2024-03-02T11:51:14;2.90;;;1.00;;
21480;SDS011;10902;48.158;8.634;2024-03-02T11:54:01;2.60;;;1.08;;
21480;SDS011;10902;48.158;8.634;2024-03-02T11:56:49;3.10;;;1.08;;
21480;SDS011;10902;48.158;8.634;2024-03-02T11:59:34;3.05;;;1.00;;
21480;SDS011;10902;48.158;8.634;2024-03-02T12:02:21;2.55;;;1.00;;
21480;SDS011;10902;48.158;8.634;2024-03-02T12:05:07;2.60;;;0.90;;
21480;SDS011;10902;48.158;8.634;2024-03-02T12:07:57;3.28;;;1.10;;
21480;SDS011;10902;48.158;8.634;2024-03-02T12:10:44;3.03;;;0.98;;
21480;SDS011;10902;48.158;8.634;2024-03-02T12:13:51;2.88;;;1.00;;
21480;SDS011;10902;48.158;8.634;2024-03-02T12:16:43;2.45;;;1.00;;
21480;SDS011;10902;48.158;8.634;2024-03-02T12:19:29;2.78;;;1.00;;
21480;SDS011;10902;48.158;8.634;2024-03-02T12:22:16;2.30;;;0.90;;
21480;SDS011;10902;48.158;8.634;2024-03-02T12:25:01;2.80;;;1.10;;
21480;SDS011;10902;48.158;8.634;2024-03-02T12:27:53;2.97;;;1.00;;
21480;SDS011;10902;48.158;8.634;2024-03-02T12:30:40;2.70;;;0.70;;
21480;SDS011;10902;48.158;8.634;2024-03-02T12:33:25;2.78;;;1.05;;
21480;SDS011;10902;48.158;8.634;2024-03-02T12:36:15;2.83;;;1.10;;
21480;SDS011;10902;48.158;8.634;2024-03-02T12:39:00;2.55;;;1.02;;
21480;SDS011;10902;48.158;8.634;2024-03-02T12:41:46;2.80;;;1.00;;
21480;SDS011;10902;48.158;8.634;2024-03-02T12:44:32;2.63;;;1.00;;
21480;SDS011;10902;48.158;8.634;2024-03-02T12:47:17;2.00;;;0.80;;
21480;SDS011;10902;48.158;8.634;2024-03-02T12:50:03;2.60;;;0.90;;
21480;SDS011;10902;48.158;8.634;2024-03-02T12:52:53;2.45;;;0.90;;
21480;SDS011;10902;48.158;8.634;2024-03-02T12:55:39;2.45;;;0.88;;
21480;SDS011;10902;48.158;8.634;2024-03-02T12:58:24;2.72;;;1.02;;
21480;SDS011;10902;48.158;8.634;2024-03-02T13:01:11;3.00;;;1.05;;
21480;SDS011;10902;48.158;8.634;2024-03-02T13:03:59;3.15;;;1.17;;
21480;SDS011;10902;48.158;8.634;2024-03-02T13:06:45;2.22;;;0.80;;
21480;SDS011;10902;48.158;8.634;2024-03-02T13:09:31;3.97;;;1.20;;
21480;SDS011;10902;48.158;8.634;2024-03-02T13:12:22;2.40;;;0.80;;
21480;SDS011;10902;48.158;8.634;2024-03-02T13:15:09;2.65;;;1.10;;
21480;SDS011;10902;48.158;8.634;2024-03-02T13:17:58;2.92;;;1.20;;
21480;SDS011;10902;48.158;8.634;2024-03-02T13:20:45;2.50;;;0.95;;
21480;SDS011;10902;48.158;8.634;2024-03-02T13:23:30;2.72;;;1.00;;
21480;SDS011;10902;48.158;8.634;2024-03-02T13:26:16;6.07;;;1.20;;
21480;SDS011;10902;48.158;8.634;2024-03-02T13:29:02;3.88;;;1.38;;
21480;SDS011;10902;48.158;8.634;2024-03-02T13:31:47;3.10;;;1.23;;
21480;SDS011;10902;48.158;8.634;2024-03-02T13:34:33;2.85;;;1.27;;
21480;SDS011;10902;48.158;8.634;2024-03-02T13:37:20;3.42;;;1.08;;
21480;SDS011;10902;48.158;8.634;2024-03-02T13:40:06;2.97;;;1.15;;
21480;SDS011;10902;48.158;8.634;2024-03-02T13:42:57;3.20;;;1.20;;
21480;SDS011;10902;48.158;8.634;2024-03-02T13:45:43;3.13;;;1.40;;
21480;SDS011;10902;48.158;8.634;2024-03-02T13:48:28;3.38;;;1.15;;
21480;SDS011;10902;48.158;8.634;2024-03-02T13:51:15;4.35;;;1.35;;
21480;SDS011;10902;48.158;8.634;2024-03-02T13:54:01;4.10;;;1.45;;
21480;SDS011;10902;48.158;8.634;2024-03-02T13:56:48;3.88;;;1.30;;
21480;SDS011;10902;48.158;8.634;2024-03-02T13:59:33;3.00;;;1.10;;
21480;SDS011;10902;48.158;8.634;2024-03-02T14:02:20;4.57;;;1.95;;
21480;SDS011;10902;48.158;8.634;2024-03-02T14:05:05;3.10;;;1.30;;
21480;SDS011;10902;48.158;8.634;2024-03-02T14:07:55;2.20;;;1.00;;
21480;SDS011;10902;48.158;8.634;2024-03-02T14:10:41;3.65;;;1.23;;
21480;SDS011;10902;48.158;8.634;2024-03-02T14:13:27;3.30;;;1.23;;
21480;SDS011;10902;48.158;8.634;2024-03-02T14:16:14;2.70;;;0.98;;
21480;SDS011;10902;48.158;8.634;2024-03-02T14:18:59;2.72;;;1.08;;
21480;SDS011;10902;48.158;8.634;2024-03-02T14:21:45;3.30;;;1.25;;
21480;SDS011;10902;48.158;8.634;2024-03-02T14:24:32;3.00;;;1.20;;
21480;SDS011;10902;48.158;8.634;2024-03-02T14:27:18;2.45;;;0.98;;
21480;SDS011;10902;48.158;8.634;2024-03-02T14:30:04;3.47;;;0.85;;
21480;SDS011;10902;48.158;8.634;2024-03-02T14:32:50;3.00;;;0.60;;
21480;SDS011;10902;48.158;8.634;2024-03-02T14:35:36;1.73;;;0.40;;
21480;SDS011;10902;48.158;8.634;2024-03-02T14:38:21;2.35;;;0.65;;
21480;SDS011;10902;48.158;8.634;2024-03-02T14:41:07;2.03;;;0.70;;
21480;SDS011;10902;48.158;8.634;2024-03-02T14:43:52;2.30;;;0.73;;
21480;SDS011;10902;48.158;8.634;2024-03-02T14:46:38;2.83;;;0.93;;
21480;SDS011;10902;48.158;8.634;2024-03-02T14:49:24;1.77;;;0.60;;
21480;SDS011;10902;48.158;8.634;2024-03-02T14:52:10;2.22;;;0.65;;
21480;SDS011;10902;48.158;8.634;2024-03-02T14:54:56;5.18;;;1.02;;
21480;SDS011;10902;48.158;8.634;2024-03-02T14:57:42;1.98;;;0.60;;
21480;SDS011;10902;48.158;8.634;2024-03-02T15:00:28;2.05;;;0.55;;
21480;SDS011;10902;48.158;8.634;2024-03-02T15:03:13;2.05;;;0.63;;
21480;SDS011;10902;48.158;8.634;2024-03-02T15:05:59;2.47;;;0.65;;
21480;SDS011;10902;48.158;8.634;2024-03-02T15:08:45;4.78;;;1.75;;
21480;SDS011;10902;48.158;8.634;2024-03-02T15:11:31;2.60;;;0.70;;
21480;SDS011;10902;48.158;8.634;2024-03-02T15:14:17;3.13;;;0.40;;
21480;SDS011;10902;48.158;8.634;2024-03-02T15:17:02;3.33;;;0.57;;
21480;SDS011;10902;48.158;8.634;2024-03-02T15:19:48;1.52;;;0.45;;
21480;SDS011;10902;48.158;8.634;2024-03-02T15:22:34;2.33;;;0.50;;
21480;SDS011;10902;48.158;8.634;2024-03-02T15:25:19;1.75;;;0.47;;
21480;SDS011;10902;48.158;8.634;2024-03-02T15:28:05;2.35;;;0.70;;
21480;SDS011;10902;48.158;8.634;2024-03-02T15:30:50;3.42;;;0.80;;
21480;SDS011;10902;48.158;8.634;2024-03-02T15:33:36;2.75;;;0.88;;
21480;SDS011;10902;48.158;8.634;2024-03-02T15:36:22;2.17;;;0.90;;
21480;SDS011;10902;48.158;8.634;2024-03-02T15:39:08;2.40;;;0.98;;
21480;SDS011;10902;48.158;8.634;2024-03-02T15:41:54;3.60;;;1.20;;
21480;SDS011;10902;48.158;8.634;2024-03-02T15:44:39;8.05;;;2.17;;
21480;SDS011;10902;48.158;8.634;2024-03-02T15:47:26;6.60;;;2.10;;
21480;SDS011;10902;48.158;8.634;2024-03-02T15:50:11;9.77;;;3.63;;
21480;SDS011;10902;48.158;8.634;2024-03-02T15:52:58;5.13;;;1.88;;
21480;SDS011;10902;48.158;8.634;2024-03-02T15:55:48;2.58;;;1.02;;
21480;SDS011;10902;48.158;8.634;2024-03-02T15:58:34;9.75;;;5.40;;
21480;SDS011;10902;48.158;8.634;2024-03-02T16:01:20;10.55;;;5.93;;
21480;SDS011;10902;48.158;8.634;2024-03-02T16:04:06;9.18;;;6.22;;
21480;SDS011;10902;48.158;8.634;2024-03-02T16:06:52;5.35;;;3.03;;
21480;SDS011;10902;48.158;8.634;2024-03-02T16:09:37;10.65;;;5.32;;
21480;SDS011;10902;48.158;8.634;2024-03-02T16:12:23;21.30;;;12.50;;
21480;SDS011;10902;48.158;8.634;2024-03-02T16:15:09;11.45;;;6.97;;
21480;SDS011;10902;48.158;8.634;2024-03-02T16:17:54;4.05;;;1.83;;
21480;SDS011;10902;48.158;8.634;2024-03-02T16:20:40;3.00;;;1.40;;
21480;SDS011;10902;48.158;8.634;2024-03-02T16:23:26;3.22;;;1.58;;
21480;SDS011;10902;48.158;8.634;2024-03-02T16:26:11;4.20;;;2.30;;
21480;SDS011;10902;48.158;8.634;2024-03-02T16:28:57;5.25;;;2.67;;